logo
Search for airport 
image banner adimage banner adimage banner ad
image banner ad

FADIAM - Diamond Valley

Located in , South Africa

ICAO - , IATA -

Data provided by Airmate  

General information

Coordinates: S30°16'19" E29°23'50"
Elevation is 4999 feet MSL.
 
View others Airports in Kwazulu-Natal

Operational data

Special qualification required
Current time UTC:
Current local time:
Weather at : - ( 0 km )
METAR: UUOK 171919Z AUTO 22004MPS 9999 // ///010/// 19/18 Q1009 RMK QFE739/0985
View NOTAMs / SUP AIP / TFR affecting this airport [VIEW]
Communications frequencies: [VIEW]

Runways:

RWY identifierQFULength (ft)Width (ft)SurfaceLDA (ft)
12110°164066GRASS
30290°164066GRASS

Airport contact information

Address: South Africa

Satellite view of FADIAM